createdAt,value
2023-01-20T00:01:58.516Z,99.90
2023-01-20T00:05:20.448Z,99.90
2023-01-20T00:08:42.640Z,99.90
2023-01-20T00:12:04.935Z,99.90
2023-01-20T00:15:27.242Z,99.90
2023-01-20T00:18:49.513Z,99.90
2023-01-20T00:22:11.467Z,99.90
2023-01-20T00:25:36.861Z,99.90
2023-01-20T00:28:58.866Z,99.90
2023-01-20T00:32:20.842Z,99.90
2023-01-20T00:35:42.801Z,99.90
2023-01-20T00:39:05.541Z,99.90
2023-01-20T00:42:27.589Z,99.90
2023-01-20T00:45:49.568Z,99.90
2023-01-20T00:49:12.148Z,99.90
2023-01-20T00:52:34.113Z,99.90
2023-01-20T00:55:56.318Z,99.90
2023-01-20T00:59:18.329Z,99.90
2023-01-20T01:02:40.376Z,99.90
2023-01-20T01:06:07.131Z,99.90
2023-01-20T01:09:29.045Z,99.90
2023-01-20T01:12:50.963Z,99.90
2023-01-20T01:16:14.657Z,99.90
2023-01-20T01:19:36.799Z,99.90
2023-01-20T01:22:58.833Z,99.90
2023-01-20T01:26:20.891Z,99.90
2023-01-20T01:29:42.891Z,99.90
2023-01-20T01:33:04.860Z,99.90
2023-01-20T01:36:26.792Z,99.90
2023-01-20T01:39:49.103Z,99.90
2023-01-20T01:43:31.183Z,99.90
2023-01-20T01:46:53.205Z,99.90
2023-01-20T01:50:26.104Z,99.90
2023-01-20T01:53:53.920Z,99.90
2023-01-20T01:57:16.004Z,99.90
2023-01-20T02:00:39.048Z,99.90
2023-01-20T02:04:05.144Z,99.90
2023-01-20T02:07:27.461Z,99.90
2023-01-20T02:10:49.519Z,99.90
2023-01-20T02:14:12.076Z,99.90
2023-01-20T02:17:49.418Z,99.90
2023-01-20T02:21:40.906Z,99.90
2023-01-20T02:25:30.121Z,99.90
2023-01-20T02:29:23.324Z,99.90
2023-01-20T02:32:48.262Z,99.90
2023-01-20T02:36:43.325Z,99.90
2023-01-20T02:40:30.003Z,99.90
2023-01-20T02:44:19.412Z,99.90
2023-01-20T02:48:22.895Z,99.90
2023-01-20T02:51:56.911Z,99.90
2023-01-20T02:55:33.178Z,99.90
2023-01-20T02:59:10.216Z,99.90
2023-01-20T03:02:36.051Z,99.90
2023-01-20T03:06:02.262Z,99.90
2023-01-20T03:09:47.138Z,99.90
2023-01-20T03:13:29.709Z,99.90
2023-01-20T03:16:51.835Z,99.90
2023-01-20T03:20:14.051Z,99.90
2023-01-20T03:23:40.522Z,99.90
2023-01-20T03:27:02.562Z,99.90
2023-01-20T03:30:25.701Z,99.90
2023-01-20T03:33:49.370Z,99.90
2023-01-20T03:37:12.537Z,99.90
2023-01-20T03:40:42.524Z,99.90
2023-01-20T03:44:45.746Z,99.90
2023-01-20T03:48:17.707Z,99.90
2023-01-20T03:52:00.515Z,99.90
2023-01-20T03:55:22.451Z,99.90
2023-01-20T03:58:49.294Z,99.90
2023-01-20T04:02:12.348Z,99.90
2023-01-20T04:05:36.039Z,99.90
2023-01-20T04:09:05.140Z,99.90
2023-01-20T04:12:27.099Z,99.90
2023-01-20T04:15:50.242Z,99.90
2023-01-20T04:19:12.322Z,99.90
2023-01-20T04:22:46.071Z,99.90
2023-01-20T04:26:08.137Z,99.90
2023-01-20T04:29:30.058Z,99.90
2023-01-20T04:32:52.082Z,99.90
2023-01-20T04:36:14.027Z,99.90
2023-01-20T04:39:36.045Z,99.90
2023-01-20T04:42:58.959Z,99.90
2023-01-20T04:46:21.060Z,99.90
2023-01-20T04:49:43.076Z,99.90
2023-01-20T04:53:05.094Z,99.90
2023-01-20T04:56:27.313Z,99.90
2023-01-20T04:59:50.026Z,99.90
2023-01-20T05:03:12.015Z,99.90
2023-01-20T05:06:35.319Z,99.90
2023-01-20T05:09:57.245Z,99.90
2023-01-20T05:13:19.192Z,99.90
2023-01-20T05:16:41.316Z,99.90
2023-01-20T05:20:03.560Z,99.90
2023-01-20T05:23:25.519Z,99.90
2023-01-20T05:26:47.568Z,99.90
2023-01-20T05:30:10.312Z,99.90
2023-01-20T05:33:32.462Z,99.90
2023-01-20T05:36:54.634Z,99.90
2023-01-20T05:40:16.857Z,99.90
2023-01-20T05:43:38.882Z,99.90
2023-01-20T05:47:00.872Z,99.90
2023-01-20T05:50:24.181Z,99.90
2023-01-20T05:53:46.456Z,99.90
2023-01-20T05:57:08.630Z,99.90
2023-01-20T06:00:31.084Z,99.90
2023-01-20T06:03:53.204Z,99.90
2023-01-20T06:07:15.752Z,99.90
2023-01-20T06:10:37.695Z,99.90
2023-01-20T06:13:59.697Z,99.90
2023-01-20T06:17:21.619Z,99.90
2023-01-20T06:20:43.558Z,99.90
2023-01-20T06:24:06.092Z,99.90
2023-01-20T06:27:28.110Z,99.90
2023-01-20T06:30:50.035Z,99.90
2023-01-20T06:34:12.659Z,99.90
2023-01-20T06:37:34.662Z,99.90
2023-01-20T06:41:02.595Z,99.90
2023-01-20T06:44:25.211Z,99.90
2023-01-20T06:47:50.456Z,99.90
2023-01-20T06:51:18.160Z,99.90
2023-01-20T06:54:40.243Z,99.90
2023-01-20T06:58:02.231Z,99.90
2023-01-20T07:01:26.836Z,99.90
2023-01-20T07:04:52.537Z,99.90
2023-01-20T07:08:14.478Z,99.90
2023-01-20T07:11:36.638Z,99.90
2023-01-20T07:14:58.721Z,99.90
2023-01-20T07:18:20.850Z,99.90
2023-01-20T07:21:45.937Z,99.90
2023-01-20T07:25:08.214Z,99.90
2023-01-20T07:28:31.836Z,99.90
2023-01-20T07:31:53.954Z,99.90
2023-01-20T07:35:16.457Z,99.90
2023-01-20T07:38:38.885Z,99.90
2023-01-20T07:42:00.820Z,99.90
2023-01-20T07:45:22.858Z,99.90
2023-01-20T07:48:44.910Z,99.90
2023-01-20T07:52:10.149Z,99.90
2023-01-20T07:55:34.696Z,99.90
2023-01-20T07:58:57.477Z,99.90
2023-01-20T08:02:19.463Z,99.90
2023-01-20T08:05:41.494Z,99.90
2023-01-20T08:09:03.637Z,99.90
2023-01-20T08:12:25.632Z,99.90
2023-01-20T08:15:47.757Z,99.90
2023-01-20T08:19:09.714Z,99.90
2023-01-20T08:22:31.761Z,99.90
2023-01-20T08:26:05.719Z,99.90
2023-01-20T08:29:27.841Z,99.90
2023-01-20T08:32:50.002Z,99.90
2023-01-20T08:36:18.036Z,99.90
2023-01-20T08:39:40.017Z,99.90
2023-01-20T08:43:02.296Z,99.90
2023-01-20T08:46:24.862Z,99.90
2023-01-20T08:49:46.905Z,99.90
2023-01-20T08:53:08.939Z,99.90
2023-01-20T08:56:31.119Z,99.90
2023-01-20T08:59:54.358Z,99.90
2023-01-20T09:03:16.424Z,99.90
2023-01-20T09:06:48.488Z,99.90
2023-01-20T09:10:11.114Z,51.20
2023-01-20T09:13:33.135Z,33.60
2023-01-20T09:16:56.260Z,72.00
2023-01-20T09:20:18.302Z,1.00
2023-01-20T09:23:42.806Z,99.90
2023-01-20T09:27:04.947Z,99.90
2023-01-20T09:30:26.984Z,99.90
2023-01-20T09:33:49.055Z,1.00
2023-01-20T09:37:29.578Z,99.90
2023-01-20T09:41:43.065Z,99.90
2023-01-20T09:45:32.939Z,99.90
2023-01-20T09:49:23.540Z,99.90
2023-01-20T09:53:05.145Z,99.90
2023-01-20T09:56:29.275Z,99.90
2023-01-20T10:00:07.371Z,99.90
2023-01-20T10:04:02.932Z,99.90
2023-01-20T10:07:46.732Z,99.90
2023-01-20T10:11:16.227Z,99.90
2023-01-20T10:15:10.146Z,99.90
2023-01-20T10:18:48.365Z,99.90
2023-01-20T10:22:16.747Z,99.90
2023-01-20T10:25:45.511Z,1.00
2023-01-20T10:29:13.543Z,7.80
2023-01-20T10:32:39.648Z,1.00
2023-01-20T10:36:04.042Z,16.60
2023-01-20T10:39:48.499Z,1.00
2023-01-20T10:43:18.212Z,1.00
2023-01-20T10:47:01.910Z,1.00
2023-01-20T10:50:33.299Z,1.00
2023-01-20T10:54:14.400Z,1.00
2023-01-20T10:57:38.318Z,1.00
2023-01-20T11:01:04.923Z,1.00
2023-01-20T11:04:28.307Z,1.00
2023-01-20T11:07:53.407Z,1.00
2023-01-20T11:11:36.847Z,1.00
2023-01-20T11:15:00.943Z,1.00
2023-01-20T11:18:32.198Z,1.00
2023-01-20T11:21:54.271Z,1.00
2023-01-20T11:25:58.072Z,1.00
2023-01-20T11:29:39.274Z,1.00
2023-01-20T11:37:08.880Z,1.00
2023-01-20T11:41:25.481Z,1.00
2023-01-20T11:44:55.428Z,1.00
2023-01-20T11:48:31.741Z,1.00
2023-01-20T11:52:18.826Z,1.00
2023-01-20T11:55:55.653Z,1.00
2023-01-20T11:59:31.885Z,1.00
2023-01-20T12:03:01.011Z,1.00
2023-01-20T12:06:32.586Z,1.00
2023-01-20T12:10:05.768Z,1.00
2023-01-20T12:13:59.383Z,1.00
2023-01-20T12:17:41.871Z,1.00
2023-01-20T12:21:18.409Z,1.00
2023-01-20T12:25:08.059Z,1.00
2023-01-20T12:28:33.179Z,1.00
2023-01-20T12:31:55.432Z,1.00
2023-01-20T12:35:17.599Z,1.00
2023-01-20T12:38:53.979Z,1.00
2023-01-20T12:42:42.833Z,1.00
2023-01-20T12:46:20.198Z,1.00
2023-01-20T12:50:16.465Z,1.00
2023-01-20T12:53:49.380Z,1.00
2023-01-20T12:57:44.526Z,1.00
2023-01-20T13:01:24.411Z,1.00
2023-01-20T13:04:49.516Z,1.00
2023-01-20T13:08:24.636Z,1.00
2023-01-20T13:11:52.265Z,1.00
2023-01-20T13:15:32.944Z,1.00
2023-01-20T13:19:13.431Z,1.00
2023-01-20T13:22:36.491Z,1.00
2023-01-20T13:26:00.323Z,1.00
2023-01-20T13:29:42.972Z,1.00
2023-01-20T13:33:13.025Z,1.00
2023-01-20T13:36:34.954Z,1.00
2023-01-20T13:39:59.884Z,1.00
2023-01-20T13:43:27.459Z,1.00
2023-01-20T13:46:49.685Z,1.00
2023-01-20T13:50:25.478Z,1.00
2023-01-20T13:53:50.009Z,1.00
2023-01-20T13:57:24.299Z,1.00
2023-01-20T14:00:49.968Z,1.00
2023-01-20T14:04:17.114Z,1.00
2023-01-20T14:07:39.123Z,1.00
2023-01-20T14:11:15.763Z,1.00
2023-01-20T14:14:42.487Z,1.00
2023-01-20T14:18:05.339Z,1.00
2023-01-20T14:21:39.170Z,1.00
2023-01-20T14:25:01.842Z,1.00
2023-01-20T14:28:24.390Z,1.00
2023-01-20T14:31:46.475Z,1.00
2023-01-20T14:35:21.143Z,1.00
2023-01-20T14:38:56.560Z,1.00
2023-01-20T14:42:21.379Z,1.00
2023-01-20T14:45:46.540Z,4.30
2023-01-20T14:49:14.900Z,36.30
2023-01-20T14:52:36.882Z,99.90
2023-01-20T14:56:09.636Z,99.90
2023-01-20T14:59:31.766Z,99.90
2023-01-20T15:03:10.164Z,99.90
2023-01-20T15:06:32.864Z,99.90
2023-01-20T15:10:01.870Z,99.90
2023-01-20T15:13:25.030Z,99.90
2023-01-20T15:16:49.561Z,99.90
2023-01-20T15:20:29.037Z,99.90
2023-01-20T15:23:52.999Z,99.90
2023-01-20T15:27:24.517Z,99.90
2023-01-20T15:30:46.667Z,99.90
2023-01-20T15:34:10.305Z,99.90
2023-01-20T15:37:39.267Z,99.90
2023-01-20T15:45:56.349Z,99.90
2023-01-20T15:49:19.691Z,99.90
2023-01-20T15:52:42.453Z,99.90
2023-01-20T15:56:04.706Z,1.00
2023-01-20T15:59:30.149Z,99.90
2023-01-20T16:02:52.267Z,1.00
2023-01-20T16:06:17.162Z,1.00
2023-01-20T16:09:39.146Z,1.00
2023-01-20T16:13:01.364Z,1.00
2023-01-20T16:20:01.052Z,1.00
2023-01-20T16:23:23.099Z,1.00
2023-01-20T16:26:47.100Z,99.90
2023-01-20T16:30:18.869Z,99.90
2023-01-20T16:33:41.113Z,99.90
2023-01-20T16:37:03.255Z,88.50
2023-01-20T16:40:25.234Z,99.90
2023-01-20T16:43:47.245Z,99.90
2023-01-20T16:47:09.287Z,99.90
2023-01-20T16:50:42.451Z,99.90
2023-01-20T16:54:05.162Z,99.90
2023-01-20T16:57:27.056Z,1.00
2023-01-20T17:00:49.032Z,1.00
2023-01-20T17:04:11.026Z,99.90
2023-01-20T17:07:33.126Z,1.00
2023-01-20T17:10:55.135Z,1.00
2023-01-20T17:14:17.089Z,99.90
2023-01-20T17:17:39.025Z,99.90
2023-01-20T17:21:07.001Z,1.00
2023-01-20T17:24:28.923Z,99.90
2023-01-20T17:27:50.941Z,99.90
2023-01-20T17:31:12.998Z,99.90
2023-01-20T17:34:34.941Z,69.50
2023-01-20T17:37:58.254Z,61.10
2023-01-20T17:41:20.255Z,99.90
2023-01-20T17:44:42.206Z,44.10
2023-01-20T17:48:04.718Z,99.90
2023-01-20T17:51:28.882Z,99.90
2023-01-20T17:54:52.082Z,99.90
2023-01-20T17:58:14.110Z,99.90
2023-01-20T18:01:36.117Z,99.90
2023-01-20T18:04:58.095Z,99.90
2023-01-20T18:08:20.109Z,99.90
2023-01-20T18:11:43.655Z,99.90
2023-01-20T18:15:06.239Z,99.90
2023-01-20T18:18:28.979Z,99.90
2023-01-20T18:21:50.953Z,99.90
2023-01-20T18:25:13.016Z,99.90
2023-01-20T18:28:36.022Z,99.90
2023-01-20T18:31:58.277Z,1.00
2023-01-20T18:35:20.337Z,1.00
2023-01-20T18:38:45.532Z,99.90
2023-01-20T18:42:07.490Z,99.90
2023-01-20T18:45:29.494Z,99.90
2023-01-20T18:48:57.741Z,99.90
2023-01-20T18:52:20.152Z,99.90
2023-01-20T18:55:42.219Z,99.90
2023-01-20T18:59:06.438Z,99.90
2023-01-20T19:02:28.775Z,99.90
2023-01-20T19:05:55.069Z,99.90
2023-01-20T19:09:22.078Z,1.00
2023-01-20T19:12:44.774Z,1.00
2023-01-20T19:16:10.428Z,1.00
2023-01-20T19:19:32.553Z,1.00
2023-01-20T19:22:54.555Z,1.00
2023-01-20T19:26:18.791Z,1.00
2023-01-20T19:29:41.517Z,1.00
2023-01-20T19:33:03.920Z,1.00
2023-01-20T19:36:26.629Z,8.40
2023-01-20T19:40:04.453Z,37.60
2023-01-20T19:43:26.425Z,20.80
2023-01-20T19:46:48.444Z,8.70
2023-01-20T19:50:11.025Z,29.60
2023-01-20T19:53:33.768Z,58.20
2023-01-20T19:56:58.442Z,64.70
2023-01-20T20:00:20.712Z,99.90
2023-01-20T20:03:43.250Z,99.90
2023-01-20T20:07:05.248Z,99.90
2023-01-20T20:10:27.239Z,99.90
2023-01-20T20:14:03.046Z,99.90
2023-01-20T20:17:27.708Z,99.90
2023-01-20T20:20:49.661Z,99.90
2023-01-20T20:24:13.357Z,99.90
2023-01-20T20:27:35.350Z,96.80
2023-01-20T20:31:05.184Z,89.50
2023-01-20T20:34:27.299Z,84.30
2023-01-20T20:37:49.354Z,90.70
2023-01-20T20:41:11.616Z,94.50
2023-01-20T20:44:33.609Z,95.30
2023-01-20T20:47:57.101Z,94.10
2023-01-20T20:51:19.116Z,50.80
2023-01-20T20:54:41.076Z,1.00
2023-01-20T20:58:03.092Z,1.00
2023-01-20T21:01:25.149Z,1.00
2023-01-20T21:04:47.120Z,99.90
2023-01-20T21:08:09.133Z,1.00
2023-01-20T21:11:31.535Z,99.90
2023-01-20T21:14:53.875Z,99.90
2023-01-20T21:18:16.006Z,99.90
2023-01-20T21:21:38.004Z,99.90
2023-01-20T21:25:31.413Z,99.90
2023-01-20T21:29:00.337Z,99.90
2023-01-20T21:32:57.606Z,99.90
2023-01-20T21:36:20.540Z,99.90
2023-01-20T21:39:42.543Z,99.90
2023-01-20T21:43:23.540Z,99.90
2023-01-20T21:46:45.629Z,99.90
2023-01-20T21:50:30.396Z,1.00
2023-01-20T21:53:52.387Z,1.00
2023-01-20T21:57:14.814Z,1.00
2023-01-20T22:00:37.017Z,1.00
2023-01-20T22:03:59.286Z,1.00
2023-01-20T22:07:48.002Z,1.00
2023-01-20T22:11:18.921Z,1.00
2023-01-20T22:14:45.246Z,1.00
2023-01-20T22:18:07.834Z,1.00
2023-01-20T22:21:29.810Z,1.00
2023-01-20T22:24:51.965Z,1.00
2023-01-20T22:28:14.123Z,1.00
2023-01-20T22:31:36.232Z,1.00
2023-01-20T22:34:58.680Z,1.00
2023-01-20T22:38:20.594Z,1.00
2023-01-20T22:41:45.928Z,1.00
2023-01-20T22:45:08.476Z,1.00
2023-01-20T22:48:32.433Z,1.00
2023-01-20T22:51:55.245Z,1.00
2023-01-20T22:55:17.198Z,1.00
2023-01-20T22:58:39.828Z,1.00
2023-01-20T23:02:01.824Z,1.00
2023-01-20T23:05:23.801Z,1.00
2023-01-20T23:08:45.771Z,1.00
2023-01-20T23:12:07.726Z,1.00
2023-01-20T23:15:29.808Z,1.00
2023-01-20T23:18:52.494Z,1.00
2023-01-20T23:22:14.463Z,1.00
2023-01-20T23:25:36.669Z,1.00
2023-01-20T23:28:59.015Z,99.90
2023-01-20T23:32:21.171Z,99.90
2023-01-20T23:35:43.094Z,99.90
2023-01-20T23:39:04.992Z,99.90
2023-01-20T23:42:29.101Z,99.90
2023-01-20T23:45:51.178Z,99.90
2023-01-20T23:49:13.102Z,99.90
2023-01-20T23:52:35.276Z,99.90
2023-01-20T23:56:01.960Z,99.90
2023-01-20T23:59:23.943Z,99.90
